createdAt,value
2022-10-20T00:00:52.641Z,1020.31
2022-10-20T00:01:52.630Z,1020.28
2022-10-20T00:02:52.679Z,1020.29
2022-10-20T00:03:52.629Z,1020.24
2022-10-20T00:04:52.639Z,1020.22
2022-10-20T00:05:52.642Z,1020.20
2022-10-20T00:06:52.648Z,1020.21
2022-10-20T00:07:52.655Z,1020.18
2022-10-20T00:08:52.712Z,1020.12
2022-10-20T00:09:52.664Z,1020.15
2022-10-20T00:11:58.059Z,1020.12
2022-10-20T00:12:52.667Z,1020.14
2022-10-20T00:13:52.677Z,1020.11
2022-10-20T00:14:52.681Z,1020.15
2022-10-20T00:15:52.684Z,1020.13
2022-10-20T00:16:52.706Z,1020.13
2022-10-20T00:17:52.684Z,1020.11
2022-10-20T00:18:52.691Z,1020.10
2022-10-20T00:19:52.711Z,1020.12
2022-10-20T00:20:52.706Z,1020.09
2022-10-20T00:21:52.713Z,1020.13
2022-10-20T00:22:52.720Z,1020.11
2022-10-20T00:23:52.708Z,1020.13
2022-10-20T00:24:52.721Z,1020.10
2022-10-20T00:25:52.726Z,1020.12
2022-10-20T00:26:52.724Z,1020.10
2022-10-20T00:27:52.724Z,1020.10
2022-10-20T00:28:52.730Z,1020.12
2022-10-20T00:29:52.742Z,1020.12
2022-10-20T00:30:52.738Z,1020.08
2022-10-20T00:31:52.750Z,1020.11
2022-10-20T00:32:52.767Z,1020.12
2022-10-20T00:33:52.758Z,1020.06
2022-10-20T00:34:52.752Z,1020.05
2022-10-20T00:35:52.769Z,1020.05
2022-10-20T00:36:52.763Z,1020.04
2022-10-20T00:37:52.774Z,1020.03
2022-10-20T00:38:52.767Z,1019.97
2022-10-20T00:39:52.780Z,1020.00
2022-10-20T00:40:52.775Z,1020.00
2022-10-20T00:41:52.790Z,1019.97
2022-10-20T00:42:52.790Z,1019.91
2022-10-20T00:43:52.796Z,1019.91
2022-10-20T00:44:52.799Z,1019.88
2022-10-20T00:45:52.796Z,1019.83
2022-10-20T00:46:52.801Z,1019.84
2022-10-20T00:47:52.804Z,1019.78
2022-10-20T00:48:52.829Z,1019.79
2022-10-20T00:49:52.810Z,1019.81
2022-10-20T00:50:52.814Z,1019.79
2022-10-20T00:51:52.824Z,1019.79
2022-10-20T00:52:52.830Z,1019.81
2022-10-20T00:53:52.825Z,1019.83
2022-10-20T00:54:52.837Z,1019.81
2022-10-20T00:55:52.840Z,1019.82
2022-10-20T00:56:52.960Z,1019.80
2022-10-20T00:57:52.841Z,1019.75
2022-10-20T00:58:52.846Z,1019.79
2022-10-20T00:59:52.847Z,1019.74
2022-10-20T01:00:52.855Z,1019.72
2022-10-20T01:01:52.950Z,1019.71
2022-10-20T01:02:52.868Z,1019.70
2022-10-20T01:03:52.875Z,1019.71
2022-10-20T01:04:52.894Z,1019.70
2022-10-20T01:05:52.880Z,1019.69
2022-10-20T01:06:52.875Z,1019.67
2022-10-20T01:07:52.890Z,1019.66
2022-10-20T01:08:52.938Z,1019.63
2022-10-20T01:09:52.899Z,1019.62
2022-10-20T01:10:52.890Z,1019.56
2022-10-20T01:11:52.896Z,1019.56
2022-10-20T01:12:52.906Z,1019.58
2022-10-20T01:13:52.904Z,1019.55
2022-10-20T01:14:52.905Z,1019.53
2022-10-20T01:15:52.911Z,1019.49
2022-10-20T01:16:52.914Z,1019.49
2022-10-20T01:17:52.919Z,1019.48
2022-10-20T01:18:52.930Z,1019.51
2022-10-20T01:19:52.928Z,1019.46
2022-10-20T01:20:52.958Z,1019.48
2022-10-20T01:21:52.940Z,1019.42
2022-10-20T01:22:52.946Z,1019.42
2022-10-20T01:23:52.947Z,1019.38
2022-10-20T01:24:52.945Z,1019.37
2022-10-20T01:25:52.955Z,1019.35
2022-10-20T01:26:52.959Z,1019.31
2022-10-20T01:27:52.954Z,1019.22
2022-10-20T01:28:52.960Z,1019.26
2022-10-20T01:29:52.963Z,1019.24
2022-10-20T01:30:52.966Z,1019.22
2022-10-20T01:31:52.976Z,1019.21
2022-10-20T01:32:52.982Z,1019.17
2022-10-20T01:33:52.985Z,1019.17
2022-10-20T01:34:53.308Z,1019.15
2022-10-20T01:35:52.984Z,1019.16
2022-10-20T01:36:53.019Z,1019.13
2022-10-20T01:37:53.257Z,1019.12
2022-10-20T01:38:52.996Z,1019.18
2022-10-20T01:39:53.009Z,1019.12
2022-10-20T01:40:53.010Z,1019.14
2022-10-20T01:41:53.015Z,1019.14
2022-10-20T01:42:53.018Z,1019.13
2022-10-20T01:43:53.023Z,1019.17
2022-10-20T01:44:53.022Z,1019.13
2022-10-20T01:45:53.023Z,1019.16
2022-10-20T01:46:53.032Z,1019.14
2022-10-20T01:47:53.030Z,1019.15
2022-10-20T01:48:53.039Z,1019.12
2022-10-20T01:49:53.038Z,1019.11
2022-10-20T01:50:53.039Z,1019.09
2022-10-20T01:51:53.046Z,1019.09
2022-10-20T01:52:53.069Z,1019.07
2022-10-20T01:53:53.061Z,1019.03
2022-10-20T01:54:53.055Z,1019.06
2022-10-20T01:55:53.065Z,1019.03
2022-10-20T01:56:53.070Z,1018.99
2022-10-20T01:57:53.065Z,1019.01
2022-10-20T01:58:53.070Z,1018.96
2022-10-20T01:59:53.081Z,1018.94
2022-10-20T02:00:53.120Z,1018.95
2022-10-20T02:01:53.109Z,1018.92
2022-10-20T02:02:53.091Z,1018.93
2022-10-20T02:03:53.093Z,1018.94
2022-10-20T02:04:53.100Z,1018.98
2022-10-20T02:05:53.102Z,1018.99
2022-10-20T02:06:53.106Z,1018.97
2022-10-20T02:07:53.108Z,1018.94
2022-10-20T02:08:53.178Z,1018.88
2022-10-20T02:10:53.120Z,1018.84
2022-10-20T02:11:53.123Z,1018.84
2022-10-20T02:12:53.119Z,1018.81
2022-10-20T02:13:53.132Z,1018.78
2022-10-20T02:14:53.126Z,1018.82
2022-10-20T02:15:53.132Z,1018.78
2022-10-20T02:16:53.132Z,1018.78
2022-10-20T02:17:53.138Z,1018.73
2022-10-20T02:18:53.196Z,1018.78
2022-10-20T02:19:53.143Z,1018.71
2022-10-20T02:20:53.149Z,1018.74
2022-10-20T02:21:53.158Z,1018.70
2022-10-20T02:22:53.155Z,1018.71
2022-10-20T02:23:53.157Z,1018.72
2022-10-20T02:24:53.191Z,1018.74
2022-10-20T02:25:53.166Z,1018.77
2022-10-20T02:26:53.177Z,1018.78
2022-10-20T02:27:53.233Z,1018.74
2022-10-20T02:28:53.195Z,1018.78
2022-10-20T02:29:53.180Z,1018.80
2022-10-20T02:30:53.189Z,1018.80
2022-10-20T02:31:53.188Z,1018.76
2022-10-20T02:32:53.196Z,1018.77
2022-10-20T02:33:53.204Z,1018.77
2022-10-20T02:34:53.196Z,1018.78
2022-10-20T02:35:53.209Z,1018.75
2022-10-20T02:36:53.211Z,1018.75
2022-10-20T02:37:53.217Z,1018.75
2022-10-20T02:38:53.217Z,1018.69
2022-10-20T02:39:53.216Z,1018.69
2022-10-20T02:40:53.239Z,1018.69
2022-10-20T02:41:53.231Z,1018.63
2022-10-20T02:42:53.236Z,1018.62
2022-10-20T02:43:53.230Z,1018.62
2022-10-20T02:44:53.232Z,1018.59
2022-10-20T02:45:53.237Z,1018.54
2022-10-20T02:46:53.239Z,1018.59
2022-10-20T02:47:53.241Z,1018.54
2022-10-20T02:48:53.254Z,1018.55
2022-10-20T02:49:53.257Z,1018.48
2022-10-20T02:50:53.261Z,1018.46
2022-10-20T02:51:53.257Z,1018.47
2022-10-20T02:52:53.268Z,1018.49
2022-10-20T02:53:53.263Z,1018.53
2022-10-20T02:54:53.276Z,1018.56
2022-10-20T02:55:53.269Z,1018.53
2022-10-20T02:56:53.304Z,1018.56
2022-10-20T02:57:53.284Z,1018.53
2022-10-20T02:58:53.287Z,1018.55
2022-10-20T02:59:53.283Z,1018.50
2022-10-20T03:00:53.295Z,1018.46
2022-10-20T03:01:53.359Z,1018.49
2022-10-20T03:02:53.295Z,1018.46
2022-10-20T03:03:53.300Z,1018.50
2022-10-20T03:04:53.300Z,1018.50
2022-10-20T03:05:53.306Z,1018.46
2022-10-20T03:06:53.319Z,1018.47
2022-10-20T03:07:53.320Z,1018.45
2022-10-20T03:08:53.366Z,1018.42
2022-10-20T03:09:53.319Z,1018.44
2022-10-20T03:10:53.321Z,1018.37
2022-10-20T03:11:53.325Z,1018.39
2022-10-20T03:12:53.355Z,1018.42
2022-10-20T03:13:53.335Z,1018.44
2022-10-20T03:14:53.341Z,1018.39
2022-10-20T03:15:53.339Z,1018.36
2022-10-20T03:16:53.343Z,1018.41
2022-10-20T03:17:53.347Z,1018.41
2022-10-20T03:18:53.348Z,1018.38
2022-10-20T03:19:53.354Z,1018.35
2022-10-20T03:20:53.362Z,1018.34
2022-10-20T03:21:53.358Z,1018.33
2022-10-20T03:22:53.361Z,1018.32
2022-10-20T03:23:53.371Z,1018.32
2022-10-20T03:24:53.370Z,1018.27
2022-10-20T03:25:53.380Z,1018.27
2022-10-20T03:26:53.385Z,1018.28
2022-10-20T03:27:53.377Z,1018.30
2022-10-20T03:28:53.411Z,1018.32
2022-10-20T03:29:53.392Z,1018.32
2022-10-20T03:30:53.396Z,1018.32
2022-10-20T03:31:53.393Z,1018.34
2022-10-20T03:32:53.396Z,1018.33
2022-10-20T03:33:53.398Z,1018.33
2022-10-20T03:34:53.410Z,1018.29
2022-10-20T03:35:53.405Z,1018.29
2022-10-20T03:36:53.418Z,1018.29
2022-10-20T03:37:53.419Z,1018.25
2022-10-20T03:38:53.416Z,1018.19
2022-10-20T03:39:53.420Z,1018.20
2022-10-20T03:40:53.489Z,1018.16
2022-10-20T03:41:53.436Z,1018.17
2022-10-20T03:42:53.437Z,1018.14
2022-10-20T03:43:53.433Z,1018.12
2022-10-20T03:44:53.457Z,1018.13
2022-10-20T03:45:53.439Z,1018.10
2022-10-20T03:46:53.441Z,1018.07
2022-10-20T03:47:53.445Z,1018.06
2022-10-20T03:48:53.449Z,1018.09
2022-10-20T03:49:53.520Z,1018.05
2022-10-20T03:50:53.455Z,1018.00
2022-10-20T03:51:53.467Z,1018.02
2022-10-20T03:52:53.463Z,1018.04
2022-10-20T03:53:53.482Z,1018.02
2022-10-20T03:54:53.477Z,1017.97
2022-10-20T03:55:53.479Z,1017.97
2022-10-20T03:56:53.474Z,1017.96
2022-10-20T03:57:53.486Z,1017.91
2022-10-20T03:58:53.542Z,1017.97
2022-10-20T03:59:53.484Z,1017.95
2022-10-20T04:00:53.515Z,1017.95
2022-10-20T04:01:53.566Z,1017.98
2022-10-20T04:02:53.493Z,1018.00
2022-10-20T04:03:53.497Z,1018.01
2022-10-20T04:04:53.499Z,1018.02
2022-10-20T04:05:53.505Z,1018.00
2022-10-20T04:06:53.512Z,1017.99
2022-10-20T04:07:53.510Z,1018.04
2022-10-20T04:08:53.567Z,1018.03
2022-10-20T04:09:53.519Z,1018.03
2022-10-20T04:10:53.525Z,1018.03
2022-10-20T04:11:53.522Z,1018.00
2022-10-20T04:12:53.525Z,1017.96
2022-10-20T04:13:53.528Z,1017.91
2022-10-20T04:14:53.532Z,1017.91
2022-10-20T04:15:53.534Z,1017.94
2022-10-20T04:16:53.559Z,1017.95
2022-10-20T04:17:53.542Z,1017.97
2022-10-20T04:18:53.552Z,1017.96
2022-10-20T04:19:53.553Z,1017.96
2022-10-20T04:20:53.551Z,1017.92
2022-10-20T04:21:53.553Z,1017.94
2022-10-20T04:22:53.564Z,1017.89
2022-10-20T04:23:53.559Z,1017.92
2022-10-20T04:24:53.571Z,1017.89
2022-10-20T04:25:53.574Z,1017.87
2022-10-20T04:26:53.571Z,1017.81
2022-10-20T04:27:53.578Z,1017.85
2022-10-20T04:28:53.577Z,1017.86
2022-10-20T04:29:53.584Z,1017.81
2022-10-20T04:30:53.589Z,1017.84
2022-10-20T04:31:53.593Z,1017.80
2022-10-20T04:32:53.607Z,1017.76
2022-10-20T04:33:53.591Z,1017.75
2022-10-20T04:34:53.600Z,1017.77
2022-10-20T04:35:53.599Z,1017.75
2022-10-20T04:36:53.606Z,1017.73
2022-10-20T04:37:53.604Z,1017.73
2022-10-20T04:38:53.612Z,1017.69
2022-10-20T04:39:53.611Z,1017.67
2022-10-20T04:40:53.612Z,1017.62
2022-10-20T04:41:53.617Z,1017.64
2022-10-20T04:42:53.618Z,1017.56
2022-10-20T04:43:53.624Z,1017.56
2022-10-20T04:44:53.728Z,1017.53
2022-10-20T04:45:53.637Z,1017.56
2022-10-20T04:46:53.629Z,1017.52
2022-10-20T04:47:53.633Z,1017.53
2022-10-20T04:48:53.713Z,1017.54
2022-10-20T04:49:53.640Z,1017.56
2022-10-20T04:50:53.654Z,1017.57
2022-10-20T04:51:57.390Z,1017.58
2022-10-20T04:52:53.655Z,1017.56
2022-10-20T04:53:53.719Z,1017.64
2022-10-20T04:54:53.655Z,1017.59
2022-10-20T04:55:53.657Z,1017.60
2022-10-20T04:56:53.661Z,1017.63
2022-10-20T04:57:53.663Z,1017.56
2022-10-20T04:58:53.674Z,1017.58
2022-10-20T04:59:53.669Z,1017.56
2022-10-20T05:00:53.680Z,1017.57
2022-10-20T05:01:53.708Z,1017.57
2022-10-20T05:02:53.687Z,1017.54
2022-10-20T05:03:53.680Z,1017.55
2022-10-20T05:04:53.704Z,1017.55
2022-10-20T05:05:53.696Z,1017.55
2022-10-20T05:06:53.698Z,1017.54
2022-10-20T05:07:53.702Z,1017.51
2022-10-20T05:08:53.811Z,1017.50
2022-10-20T05:09:53.709Z,1017.48
2022-10-20T05:10:53.707Z,1017.48
2022-10-20T05:11:53.706Z,1017.48
2022-10-20T05:12:53.714Z,1017.48
2022-10-20T05:13:53.719Z,1017.49
2022-10-20T05:14:53.719Z,1017.48
2022-10-20T05:15:53.720Z,1017.51
2022-10-20T05:16:53.730Z,1017.48
2022-10-20T05:17:53.722Z,1017.49
2022-10-20T05:18:53.731Z,1017.46
2022-10-20T05:19:53.737Z,1017.46
2022-10-20T05:21:10.132Z,1017.46
2022-10-20T05:21:53.741Z,1017.46
2022-10-20T05:22:53.744Z,1017.43
2022-10-20T05:23:53.740Z,1017.40
2022-10-20T05:24:53.743Z,1017.39
2022-10-20T05:25:53.746Z,1017.34
2022-10-20T05:26:53.757Z,1017.34
2022-10-20T05:27:53.758Z,1017.30
2022-10-20T05:28:53.764Z,1017.27
2022-10-20T05:29:53.759Z,1017.30
2022-10-20T05:30:55.590Z,1017.28
2022-10-20T05:31:53.764Z,1017.28
2022-10-20T05:32:53.775Z,1017.29
2022-10-20T05:33:53.775Z,1017.26
2022-10-20T05:34:53.771Z,1017.29
2022-10-20T05:35:53.784Z,1017.26
2022-10-20T05:36:53.805Z,1017.21
2022-10-20T05:37:53.781Z,1017.20
2022-10-20T05:38:53.791Z,1017.19
2022-10-20T05:39:53.797Z,1017.17
2022-10-20T05:40:53.790Z,1017.17
2022-10-20T05:41:53.795Z,1017.19
2022-10-20T05:42:53.795Z,1017.19
2022-10-20T05:43:53.806Z,1017.19
2022-10-20T05:44:53.800Z,1017.16
2022-10-20T05:45:53.804Z,1017.17
2022-10-20T05:46:53.813Z,1017.19
2022-10-20T05:47:53.810Z,1017.11
2022-10-20T05:48:53.821Z,1017.06
2022-10-20T05:49:53.824Z,1017.11
2022-10-20T05:50:53.825Z,1017.10
2022-10-20T05:51:53.829Z,1017.10
2022-10-20T05:52:53.854Z,1017.08
2022-10-20T05:53:53.829Z,1017.12
2022-10-20T05:54:53.831Z,1017.12
2022-10-20T05:55:53.842Z,1017.14
2022-10-20T05:56:53.836Z,1017.17
2022-10-20T05:57:53.845Z,1017.18
2022-10-20T05:58:53.842Z,1017.19
2022-10-20T05:59:53.843Z,1017.25
2022-10-20T06:00:53.855Z,1017.21
2022-10-20T06:01:53.852Z,1017.24
2022-10-20T06:02:53.861Z,1017.19
2022-10-20T06:03:53.864Z,1017.24
2022-10-20T06:04:53.866Z,1017.21
2022-10-20T06:05:53.862Z,1017.21
2022-10-20T06:06:53.872Z,1017.21
2022-10-20T06:07:53.867Z,1017.23
2022-10-20T06:08:53.999Z,1017.27
2022-10-20T06:09:53.874Z,1017.29
2022-10-20T06:10:53.884Z,1017.29
2022-10-20T06:11:53.885Z,1017.29
2022-10-20T06:12:53.890Z,1017.29
2022-10-20T06:13:53.892Z,1017.31
2022-10-20T06:14:53.887Z,1017.27
2022-10-20T06:15:53.890Z,1017.26
2022-10-20T06:16:53.892Z,1017.29
2022-10-20T06:17:53.899Z,1017.29
2022-10-20T06:18:53.897Z,1017.26
2022-10-20T06:19:53.902Z,1017.28
2022-10-20T06:20:53.911Z,1017.26
2022-10-20T06:21:53.916Z,1017.26
2022-10-20T06:22:53.917Z,1017.26
2022-10-20T06:23:53.914Z,1017.26
2022-10-20T06:24:53.939Z,1017.28
2022-10-20T06:25:53.922Z,1017.27
2022-10-20T06:26:53.929Z,1017.25
2022-10-20T06:27:53.926Z,1017.28
2022-10-20T06:28:53.934Z,1017.32
2022-10-20T06:29:53.935Z,1017.33
2022-10-20T06:30:53.936Z,1017.33
2022-10-20T06:31:53.943Z,1017.40
2022-10-20T06:32:53.950Z,1017.36
2022-10-20T06:33:53.944Z,1017.34
2022-10-20T06:34:53.954Z,1017.39
2022-10-20T06:35:53.949Z,1017.34
2022-10-20T06:36:53.954Z,1017.33
2022-10-20T06:37:53.964Z,1017.35
2022-10-20T06:38:53.959Z,1017.34
2022-10-20T06:39:53.967Z,1017.36
2022-10-20T06:40:53.995Z,1017.29
2022-10-20T06:41:53.973Z,1017.27
2022-10-20T06:43:53.981Z,1017.26
2022-10-20T06:44:53.986Z,1017.25
2022-10-20T06:45:53.980Z,1017.27
2022-10-20T06:46:53.984Z,1017.27
2022-10-20T06:47:53.986Z,1017.23
2022-10-20T06:48:57.899Z,1017.27
2022-10-20T06:49:53.993Z,1017.22
2022-10-20T06:50:53.997Z,1017.23
2022-10-20T06:51:54.021Z,1017.15
2022-10-20T06:52:54.002Z,1017.17
2022-10-20T06:53:54.009Z,1017.13
2022-10-20T06:54:54.014Z,1017.11
2022-10-20T06:55:54.019Z,1017.08
2022-10-20T06:56:54.043Z,1017.02
2022-10-20T06:57:54.019Z,1017.06
2022-10-20T06:58:54.023Z,1017.06
2022-10-20T06:59:54.024Z,1017.07
2022-10-20T07:00:54.026Z,1017.13
2022-10-20T07:01:54.087Z,1017.13
2022-10-20T07:02:54.036Z,1017.14
2022-10-20T07:03:54.043Z,1017.12
2022-10-20T07:04:54.041Z,1017.18
2022-10-20T07:05:54.050Z,1017.19
2022-10-20T07:06:54.045Z,1017.17
2022-10-20T07:07:54.057Z,1017.17
2022-10-20T07:08:54.087Z,1017.16
2022-10-20T07:09:54.063Z,1017.14
2022-10-20T07:10:54.061Z,1017.14
2022-10-20T07:11:54.069Z,1017.17
2022-10-20T07:12:54.093Z,1017.16
2022-10-20T07:13:54.070Z,1017.19
2022-10-20T07:14:54.080Z,1017.19
2022-10-20T07:15:54.084Z,1017.16
2022-10-20T07:16:54.078Z,1017.19
2022-10-20T07:17:54.087Z,1017.16
2022-10-20T07:18:54.088Z,1017.16
2022-10-20T07:19:54.091Z,1017.21
2022-10-20T07:20:54.099Z,1017.22
2022-10-20T07:21:54.097Z,1017.21
2022-10-20T07:22:54.100Z,1017.19
2022-10-20T07:23:54.109Z,1017.19
2022-10-20T07:24:54.108Z,1017.17
2022-10-20T07:25:54.116Z,1017.12
2022-10-20T07:26:54.113Z,1017.16
2022-10-20T07:27:54.117Z,1017.14
2022-10-20T07:28:55.974Z,1017.15
2022-10-20T07:29:54.123Z,1017.17
2022-10-20T07:30:54.127Z,1017.19
2022-10-20T07:31:55.314Z,1017.18
2022-10-20T07:32:54.147Z,1017.20
2022-10-20T07:34:06.938Z,1017.20
2022-10-20T07:34:54.141Z,1017.20
2022-10-20T07:35:54.144Z,1017.12
2022-10-20T07:36:54.161Z,1017.12
2022-10-20T07:37:54.151Z,1017.11
2022-10-20T07:38:54.162Z,1017.07
2022-10-20T07:39:54.159Z,1017.11
2022-10-20T07:40:55.648Z,1017.05
2022-10-20T07:41:54.169Z,1017.07
2022-10-20T07:42:54.176Z,1017.08
2022-10-20T07:43:54.181Z,1017.06
2022-10-20T07:44:54.204Z,1017.05
2022-10-20T07:45:54.188Z,1017.06
2022-10-20T07:46:54.184Z,1017.03
2022-10-20T07:47:54.187Z,1017.09
2022-10-20T07:48:54.196Z,1017.01
2022-10-20T07:49:54.195Z,1017.04
2022-10-20T07:50:54.204Z,1017.05
2022-10-20T07:51:54.203Z,1017.05
2022-10-20T07:52:54.213Z,1017.07
2022-10-20T07:53:58.179Z,1017.03
2022-10-20T07:55:02.475Z,1017.03
2022-10-20T07:55:54.217Z,1017.04
2022-10-20T07:56:54.234Z,1017.02
2022-10-20T07:57:54.231Z,1016.98
2022-10-20T07:58:54.227Z,1017.01
2022-10-20T07:59:54.239Z,1016.98
2022-10-20T08:00:54.259Z,1016.95
2022-10-20T08:01:56.312Z,1016.98
2022-10-20T08:02:54.250Z,1016.93
2022-10-20T08:03:54.249Z,1016.86
2022-10-20T08:04:54.257Z,1016.86
2022-10-20T08:05:54.260Z,1016.77
2022-10-20T08:06:54.267Z,1016.82
2022-10-20T08:07:54.267Z,1016.81
2022-10-20T08:08:54.301Z,1016.82
2022-10-20T08:09:54.270Z,1016.78
2022-10-20T08:10:54.274Z,1016.80
2022-10-20T08:11:55.644Z,1016.81
2022-10-20T08:12:54.293Z,1016.74
2022-10-20T08:13:54.294Z,1016.74
2022-10-20T08:14:55.778Z,1016.70
2022-10-20T08:15:54.551Z,1016.68
2022-10-20T08:16:54.389Z,1016.73
2022-10-20T08:17:54.311Z,1016.73
2022-10-20T08:20:54.322Z,1016.69
2022-10-20T08:21:54.328Z,1016.71
2022-10-20T08:22:54.322Z,1016.73
2022-10-20T08:23:54.336Z,1016.72
2022-10-20T08:24:54.340Z,1016.68
2022-10-20T08:25:54.340Z,1016.63
2022-10-20T08:26:54.347Z,1016.59
2022-10-20T08:27:54.459Z,1016.58
2022-10-20T08:28:54.358Z,1016.59
2022-10-20T08:30:00.165Z,1016.53
2022-10-20T08:30:54.359Z,1016.54
2022-10-20T08:31:54.365Z,1016.54
2022-10-20T08:32:54.394Z,1016.54
2022-10-20T08:33:54.381Z,1016.55
2022-10-20T08:34:54.385Z,1016.53
2022-10-20T08:35:54.390Z,1016.54
2022-10-20T08:36:54.395Z,1016.55
2022-10-20T08:37:54.392Z,1016.51
2022-10-20T08:38:54.405Z,1016.50
2022-10-20T08:39:54.401Z,1016.55
2022-10-20T08:40:54.415Z,1016.53
2022-10-20T08:42:07.443Z,1016.49
2022-10-20T08:42:54.418Z,1016.46
2022-10-20T08:43:54.427Z,1016.45
2022-10-20T08:44:54.427Z,1016.44
2022-10-20T08:45:54.437Z,1016.41
2022-10-20T08:46:54.444Z,1016.49
2022-10-20T08:47:54.441Z,1016.41
2022-10-20T08:48:54.478Z,1016.41
2022-10-20T08:49:54.453Z,1016.37
2022-10-20T08:50:54.457Z,1016.32
2022-10-20T08:51:54.462Z,1016.34
2022-10-20T08:52:54.467Z,1016.28
2022-10-20T08:53:54.481Z,1016.22
2022-10-20T08:54:54.485Z,1016.26
2022-10-20T08:55:54.490Z,1016.23
2022-10-20T08:56:54.495Z,1016.21
2022-10-20T08:57:54.494Z,1016.18
2022-10-20T08:58:54.504Z,1016.13
2022-10-20T08:59:54.512Z,1016.19
2022-10-20T09:00:54.521Z,1016.15
2022-10-20T09:01:54.623Z,1016.19
2022-10-20T09:02:54.526Z,1016.14
2022-10-20T09:03:54.531Z,1016.13
2022-10-20T09:04:54.716Z,1016.08
2022-10-20T09:07:29.655Z,1016.04
2022-10-20T09:42:52.773Z,1015.26
2022-10-20T09:43:54.472Z,1015.26
2022-10-20T09:44:52.775Z,1015.28
2022-10-20T09:45:52.795Z,1015.24
2022-10-20T09:46:52.799Z,1015.22
2022-10-20T15:00:12.560Z,1011.31
2022-10-20T15:01:12.544Z,1011.29
2022-10-20T15:02:12.558Z,1011.37
2022-10-20T15:03:12.645Z,1011.32
2022-10-20T15:04:12.568Z,1011.36
2022-10-20T15:05:12.584Z,1011.33
2022-10-20T15:06:15.184Z,1011.31
2022-10-20T15:07:12.614Z,1011.24
2022-10-20T15:08:12.612Z,1011.25
2022-10-20T15:09:17.685Z,1011.21
2022-10-20T15:10:12.625Z,1011.19
2022-10-20T15:11:12.633Z,1011.20
2022-10-20T15:12:12.637Z,1011.22
2022-10-20T15:13:12.654Z,1011.19
2022-10-20T15:14:15.283Z,1011.19
2022-10-20T15:27:09.992Z,1011.27
2022-10-20T15:48:54.112Z,1010.98
2022-10-20T15:49:54.147Z,1010.99
2022-10-20T15:50:54.103Z,1010.96
2022-10-20T15:51:54.111Z,1010.96
2022-10-20T15:52:54.128Z,1010.98
2022-10-20T15:55:11.747Z,1010.99
2022-10-20T16:04:27.630Z,1010.84
2022-10-20T16:05:27.623Z,1010.79
2022-10-20T16:06:27.621Z,1010.78
2022-10-20T16:07:27.636Z,1010.73
2022-10-20T16:08:27.674Z,1010.70
2022-10-20T16:09:27.652Z,1010.66
2022-10-20T16:10:27.656Z,1010.62
2022-10-20T16:11:27.665Z,1010.60
2022-10-20T16:12:27.670Z,1010.56
2022-10-20T16:13:27.675Z,1010.50
2022-10-20T16:14:27.678Z,1010.50
2022-10-20T16:15:30.431Z,1010.45
2022-10-20T16:16:27.699Z,1010.43
2022-10-20T16:17:27.707Z,1010.37
2022-10-20T16:18:27.716Z,1010.34
2022-10-20T16:19:27.721Z,1010.32
2022-10-20T16:20:27.753Z,1010.33
2022-10-20T16:21:27.736Z,1010.38
2022-10-20T16:22:27.736Z,1010.44
2022-10-20T16:23:27.750Z,1010.50
2022-10-20T16:24:27.751Z,1010.47
2022-10-20T16:25:27.765Z,1010.57
2022-10-20T16:26:27.765Z,1010.61
2022-10-20T16:28:25.343Z,1010.56
2022-10-20T16:29:26.574Z,1010.52
2022-10-20T16:30:25.359Z,1010.50
2022-10-20T16:31:25.373Z,1010.54
2022-10-20T16:33:07.921Z,1010.68
2022-10-20T16:34:07.929Z,1010.67
2022-10-20T16:35:07.928Z,1010.60
2022-10-20T16:37:11.785Z,1010.58
2022-10-20T16:38:07.949Z,1010.57
2022-10-20T16:39:07.956Z,1010.58
2022-10-20T16:40:07.970Z,1010.64
2022-10-20T16:41:07.980Z,1010.60
2022-10-20T16:42:07.985Z,1010.65
2022-10-20T16:43:07.992Z,1010.59
2022-10-20T16:44:07.991Z,1010.54
2022-10-20T16:45:08.003Z,1010.51
2022-10-20T16:46:08.033Z,1010.54
2022-10-20T16:47:08.014Z,1010.56
2022-10-20T16:48:08.020Z,1010.53
2022-10-20T16:49:08.039Z,1010.58
2022-10-20T16:50:08.043Z,1010.50
2022-10-20T16:51:08.078Z,1010.53
2022-10-20T16:52:08.074Z,1010.58
2022-10-20T16:53:08.062Z,1010.51
2022-10-20T16:54:08.060Z,1010.51
2022-10-20T16:55:08.076Z,1010.47
2022-10-20T16:56:08.082Z,1010.46
2022-10-20T16:57:08.087Z,1010.45
2022-10-20T16:58:08.090Z,1010.44
2022-10-20T16:59:08.094Z,1010.42
2022-10-20T17:00:08.107Z,1010.42
2022-10-20T17:01:08.272Z,1010.43
2022-10-20T17:02:08.126Z,1010.38
2022-10-20T17:03:08.123Z,1010.32
2022-10-20T17:04:08.128Z,1010.34
2022-10-20T17:05:09.488Z,1010.40
2022-10-20T17:06:08.149Z,1010.38
2022-10-20T17:07:08.156Z,1010.38
2022-10-20T17:08:08.178Z,1010.39
2022-10-20T17:09:08.253Z,1010.37
2022-10-20T17:10:08.174Z,1010.37
2022-10-20T17:11:08.175Z,1010.33
2022-10-20T17:12:08.190Z,1010.33
2022-10-20T17:13:08.190Z,1010.37
2022-10-20T17:14:08.203Z,1010.31
2022-10-20T17:15:08.203Z,1010.36
2022-10-20T17:16:08.210Z,1010.36
2022-10-20T17:17:08.224Z,1010.33
2022-10-20T17:18:08.232Z,1010.38
2022-10-20T17:19:08.231Z,1010.44
2022-10-20T17:20:08.238Z,1010.39
2022-10-20T17:21:08.250Z,1010.40
2022-10-20T17:22:08.252Z,1010.44
2022-10-20T17:23:08.259Z,1010.41
2022-10-20T17:24:08.291Z,1010.37
2022-10-20T17:25:08.273Z,1010.37
2022-10-20T17:26:08.280Z,1010.37
2022-10-20T17:27:08.289Z,1010.37
2022-10-20T17:28:08.302Z,1010.34
2022-10-20T17:29:08.310Z,1010.32
2022-10-20T17:30:08.306Z,1010.28
2022-10-20T17:31:08.379Z,1010.25
2022-10-20T17:32:08.321Z,1010.28
2022-10-20T17:33:08.329Z,1010.24
2022-10-20T17:34:08.334Z,1010.22
2022-10-20T17:35:08.347Z,1010.22
2022-10-20T17:36:08.350Z,1010.20
2022-10-20T17:37:08.359Z,1010.21
2022-10-20T17:38:08.363Z,1010.19
2022-10-20T17:39:08.381Z,1010.16
2022-10-20T17:40:08.486Z,1010.16
2022-10-20T17:41:08.392Z,1010.10
2022-10-20T17:42:08.394Z,1010.07
2022-10-20T17:43:08.396Z,1010.08
2022-10-20T17:44:08.406Z,1010.06
2022-10-20T17:45:08.414Z,1010.07
2022-10-20T17:46:08.414Z,1010.04
2022-10-20T17:47:08.431Z,1010.08
2022-10-20T17:48:08.426Z,1010.11
2022-10-20T17:49:08.446Z,1010.12
2022-10-20T17:51:08.448Z,1010.16
2022-10-20T17:52:08.460Z,1010.06
2022-10-20T17:53:08.468Z,1010.09
2022-10-20T17:54:08.473Z,1010.08
2022-10-20T17:55:08.476Z,1010.04
2022-10-20T17:56:08.511Z,1010.04
2022-10-20T17:57:08.495Z,1010.02
2022-10-20T17:58:08.493Z,1010.01
2022-10-20T17:59:08.663Z,1010.04
2022-10-20T18:00:12.959Z,1010.03
2022-10-20T18:01:08.580Z,1009.99
2022-10-20T18:02:08.520Z,1009.98
2022-10-20T18:03:08.533Z,1010.02
2022-10-20T18:04:08.532Z,1009.98
2022-10-20T18:05:08.541Z,1009.95
2022-10-20T18:06:08.546Z,1009.87
2022-10-20T18:07:08.555Z,1009.83
2022-10-20T18:08:08.566Z,1009.82
2022-10-20T18:09:08.631Z,1009.78
2022-10-20T18:10:08.604Z,1009.78
2022-10-20T18:11:08.588Z,1009.78
2022-10-20T18:12:08.616Z,1009.74
2022-10-20T18:13:08.592Z,1009.70
2022-10-20T18:14:08.606Z,1009.73
2022-10-20T18:15:08.604Z,1009.71
2022-10-20T18:16:08.612Z,1009.73
2022-10-20T18:17:08.617Z,1009.71
2022-10-20T18:18:08.633Z,1009.65
2022-10-20T18:19:08.638Z,1009.72
2022-10-20T18:20:08.638Z,1009.68
2022-10-20T18:21:08.653Z,1009.66
2022-10-20T18:22:08.660Z,1009.67
2022-10-20T18:23:08.661Z,1009.64
2022-10-20T18:24:08.665Z,1009.66
2022-10-20T18:25:08.677Z,1009.64
2022-10-20T18:26:08.685Z,1009.63
2022-10-20T18:27:08.683Z,1009.65
2022-10-20T18:28:08.766Z,1009.59
2022-10-20T18:29:08.704Z,1009.63
2022-10-20T18:30:08.714Z,1009.68
2022-10-20T18:31:08.717Z,1009.65
2022-10-20T18:32:08.718Z,1009.64
2022-10-20T18:33:08.725Z,1009.67
2022-10-20T18:34:08.739Z,1009.67
2022-10-20T18:35:08.790Z,1009.64
2022-10-20T18:36:08.751Z,1009.67
2022-10-20T18:37:08.751Z,1009.73
2022-10-20T18:38:08.757Z,1009.68
2022-10-20T18:39:08.771Z,1009.72
2022-10-20T18:40:08.775Z,1009.71
2022-10-20T18:41:08.783Z,1009.80
2022-10-20T18:42:08.790Z,1009.79
2022-10-20T18:43:08.799Z,1009.80
2022-10-20T18:44:08.817Z,1009.84
2022-10-20T18:45:08.811Z,1009.84